Terminal Aerodrome Forecast
Issued by NWS

Home | Current Version | Previous Version | Text Only | Print | Product List | Glossary On
Versions: 1 2 3 4 5 6 7 8 9 10 11 12 13
000
FTUS46 KSEW 282353 RRB
TAFOLM
TAF
KOLM 282353Z 2900/2924 33004KT P6SM FEW040 OVC110
     FM290400 VRB04KT P6SM SCT035 BKN060
     FM291400 19008KT 5SM -RA BR BKN020 OVC040
     FM291800 21010G20KT P6SM -SHRA BKN030 OVC060
      TEMPO 2918/2921 21020G30KT=

USA.gov is the U.S. government's official web portal to all federal, state and local government web resources and services.